انتخاب استان
  • All
  • آذربايجان شرقی
  • آذربايجان غربی
  • اردبيل
  • اصفهان
  • البرز
  • ايلام
  • بوشهر
  • تهران
  • چارمحال بختیاری
  • خراسان جتوبی
  • خراسان رضوی
  • خراسان شمالی
  • خوزستان
  • زنجان
  • سمنان
  • سيستان و بلوجستان
  • فارس
  • قزوین
  • قم
  • کردستان
  • کرمان
  • کرمانشاه
  • کهگيلويه بويراحمد
  • گلستان
  • گيلان
  • لرستان
  • مازندران
  • متفرقه
  • مرکزی
  • نیروی هوایی
  • هرمزگان
  • همدان
  • يزد
ساعت گذشتهنمایش خطاهای
مجموع خطاهای دریافتی 10
pp1pp
لیست خطاهای دریافتی طی 3 ساعت گذشته از 2019-02-17 08:57:44.0 تا 2019-02-17 11:57:44.0
نام استان
کد ایستگاه
تاریخ پیام
متن پیام
خطای اتفاق افتاده
pp1pp
خراسان رضوی
99289
2019-02-17 09:00:00.0
SIIR41 OIMM 170900
AAXX 17091
40740 42560 62704 10011 21010 38677 40160 58007 84720 333 84725
84458 555 10003 29086 66666 00018 10027 20037 30037 50032 90043=
40741 41557 80000 10054 20031 39844 40184 50000 71022 8572/ 333
85725 88458 555 10044 29085 66666 00091 10089 20092 30096 50099
90117=
40743 42670 32403 10091 21038 39019 40135 58014 81502 333 81635
555 10041 29040 66666 00138 10110 20090 30096 50104 90120=
40744 42665 22807 10070 20007 38809 40156 58008 82100 333 82835 555
10043 29064 66666 00107 10070 20057 30060 50068 90083 77777 00015
10019 20021 30020 50015 70012 99013=
40745 42565 40202 10085 21024 38978 40124 58013 84300 333 81930
83835 555 10042 29046 66666 00114 10104 20064 30070 50078 90100=
40746 42665 53103 10064 21017 38757 40138 57011 85400 333 85640 555
10032 29056 66666 00102 10076 20056 30056 50066 90086 77777 00027
10026 20024 30021 50016 70015 99014=
40762 42665 61804 10064 20047 38497 40117 58011 86200 333 86835 555
10056 29089 66666 00080 10060 20050 30050 50062 90082=
40763 42665 22803 10079 20030 38866 40129 58011 82100 333 82835 555
10057 29071 66666 00149 10102 20080 30085 50095 90116=
40778 42567 40000 10105 20053 38900 40099 58014 84400 333 84630 555
10080 29070 66666 00098 10074 20072 30077 50089 90112 =
40806 42560 50000 10113 20031 39037 40125 58009 85300 333 81930
84635 555 10075 29057 66666 00124 10096 20066 30068 50077 90099=
40807 42662 70102 10053 20038 39535 40149 58008 87500 333 87635 555
10046 29090 66666 00081 10082 20089 30094 50097 90116=
40825 42666 42308 10062 20025 38471 40120 58008 84500 333 84635 555
10045 29077 66666 00057 10045 20035 30039 50047 90074=
40837 42570 22905 10103 20022 38997 40138 58011 82100 333 82825 555
10066 29057 66666 00134 10104 20076 30075 50089 90114=
88122 NIL=
99289 415350 71602 10046 20045 39080 40112 58009 71044 85670 333
85710 87458 555 10045 29099 66666 00094 10072 20068 30070 50074
90090=
99315 NIL=
99324 42565 73602 10049 21002 38632 40148 57014 84376 333 81930
83635 83360 85270 555 10028 29070 66666 00090 10070 20044 30054
50072 90090=
99356 42565 22305 10106 20003 38978 40099 57012 82400 333 82825 555
10062 29049 66666 00162 10112 20092 30094 50106 90126=
99434 42562 50202 10128 20050 39185 40218 57008 85300 333 85930
555 10090 29059 66666 00158 10098 20075 30075 50086 90124=
99436 42665 22806 10092 21027 38698 40150 57013 82200 333 82835 555
10044 29043 66666 00104 10086 20068 30074 50092 90114=
اشکال در ساختار پیام یا گروه
خراسان شمالی
KHBM
2019-02-17 11:03:00.0
SPIR45 KHBM 171103 SPECI KHBM 171103Z 171100Z 08006KT 9000 -RA FEW030 SCT035 OVC080 06/01 Q1027 A3033=
اشکال در ساختار پیام یا گروه
فارس
2019-02-17 09:00:00.0
SAIR42 OISS 170900 METAR OISS 170930Z =
زمان هدر پيام خيلي زود است
کرمان
40849
2019-02-17 09:00:00.0
SIIR41 OIKK 170900
AAXX 17091
40839 42665 23012 10146 21076 38574 40126 57010 82500 333 82640
555 10060 29021 66666 00190 10154 20110 30130 50142 90184=
40841 42660 52708 10126 21021 38213 40102 57022 83430 333 83640
555 10062 29036 66666 00102 10128 20136 30124 50126 90142=
40843 42665 10202 10188 20073 39531 40081 58021 81400 333 81645
555 10128 29047 66666 00218 10186 20162 30176 50204 90234=
40849 42660 12405 10094 21024 38119 40099 57816 81100 333 81840
555 10044 29043 66666 00144 10110 20084 30090 50100 90130=
40851 42660 53004 10115 20020 38238 40112 57020 85200 333 85840
555 10070 29052 66666 00181 10111 20073 30091 50123 90163=
40852 42565 62410 10040 21026 37165 40076 57008 83106 333 83830
86270 555 10012 29062 66666 00070 10060 20022 30030 50040 90062=
40853 NIL=
40854 42560 50802 10175 20043 38915 40090 57021 85200 333 85830
555 10109 29041 66666 00232 10196 20170 30166 50178 90202=
40877 42660 52607 10207 20146 39555 40089 57023 83370 333 82935
83640 84459 555 10170 29068 66666 00250 10206 20170 30182 50200
90224=
88170 NIL=
88175 NIL=
88179 NIL=
88180 NIL=
99549 42665 40000 10114 21002 38297 40101 58018 84500 333 84635
555 10062 29045 66666 00138 10124 20096 30106 50120 90142=
99550 42660 71002 10178 20118 39301 40116 57026 83360 333 83940
84358 555 10144 29068 66666 00194 10174 20160 30166 50180 90214=
99562 42660 12308 10139 21048 38455 40106 57023 81100 333 81840
555 10062 29027 66666 00196 10157 20130 30134 50150 90166=
فرمت يا مقدار گروه تغيير فشار اشکال دارد
کرمان
40849
2019-02-17 09:00:00.0
SIIR41 OIKK 170900
AAXX 17091
40839 42665 23012 10146 21076 38574 40126 57010 82500 333 82640
555 10060 29021 66666 00190 10154 20110 30130 50142 90184=
40841 42660 52708 10126 21021 38213 40102 57022 83430 333 83640
555 10062 29036 66666 00102 10128 20136 30124 50126 90142=
40843 42665 10202 10188 20073 39531 40081 58021 81400 333 81645
555 10128 29047 66666 00218 10186 20162 30176 50204 90234=
40849 42660 12405 10094 21024 38119 40099 57816 81100 333 81840
555 10044 29043 66666 00144 10110 20084 30090 50100 90130=
40851 42660 53004 10115 20020 38238 40112 57020 85200 333 85840
555 10070 29052 66666 00181 10111 20073 30091 50123 90163=
40852 42565 62410 10040 21026 37165 40076 57008 83106 333 83830
86270 555 10012 29062 66666 00070 10060 20022 30030 50040 90062=
40853 42662 42405 10076 20011 37724 40117 58014 84500 333 84640
555 10046 29064 66666 00086 10068 20070 30072 50082 90112=
40854 42560 50802 10175 20043 38915 40090 57021 85200 333 85830
555 10109 29041 66666 00232 10196 20170 30166 50178 90202=
40877 42660 52607 10207 20146 39555 40089 57023 83370 333 82935
83640 84459 555 10170 29068 66666 00250 10206 20170 30182 50200
90224=
88170 NIL=
88175 NIL=
88179 NIL=
88180 NIL=
99549 42665 40000 10114 21002 38297 40101 58018 84500 333 84635
555 10062 29045 66666 00138 10124 20096 30106 50120 90142=
99550 42660 71002 10178 20118 39301 40116 57026 83360 333 83940
84358 555 10144 29068 66666 00194 10174 20160 30166 50180 90214=
99562 42660 12308 10139 21048 38455 40106 57023 81100 333 81840
555 10062 29027 66666 00196 10157 20130 30134 50150 90166=
فرمت يا مقدار گروه تغيير فشار اشکال دارد
کرمان
99534
2019-02-17 09:00:00.0
SIIR41 OIKK 170900
AAXX 17091
99534 46/// /0000 10156 21019 36483 47457 58015 555 10068 29030 66666 0//// 10137 20134 30143 5//// 9//// 77777 00/// 10/// 20/// 30/// 50/// 70/// 99///=
فشار ايستگاه خارج از حد گزارش شده است (675 تا 1058)
متفرقه
2019-02-17 11:00:00.0
SAIR42 OIIP 171100 METAR OIIP 171100Z 30020KT 9999 SCT030CB BKN035 08/M07 Q1012=
زمان هدر پيام خيلي زود است
متفرقه
35334
2019-02-17 10:00:00.0
SAIR42 OIIP 171000 METAR OIIP 171000Z 32018KT 9999 SCT030TCU SCT035 08/M07 Q1012=
زمان هدر پيام خيلي زود است
متفرقه
2019-02-17 09:00:00.0
SAIR42 OIIP 170900 METAR OIIP 170900Z 32016KT 9999 FEW030 SCT035 07/M06 Q1013=
زمان هدر پيام خيلي زود است
يزد
99539
2019-02-17 09:00:00.0
SIIR41 YAYK 170900
AAXX 17091
99539 42580 10000 10128 21141 39999 89104 41199955568 58016 81100 555 10128 29014 66666 00154 10104 20094 30113 50139 90140=
اشکال در ساختار پیام یا گروه